createdAt,value
2022-10-18T00:01:11.780Z,11.25
2022-10-18T00:06:15.963Z,11.70
2022-10-18T00:08:44.272Z,15.73
2022-10-18T00:11:12.745Z,13.23
2022-10-18T00:13:41.150Z,14.02
2022-10-18T00:16:12.804Z,15.77
2022-10-18T00:18:41.396Z,15.50
2022-10-18T00:21:11.133Z,15.48
2022-10-18T00:23:41.092Z,12.30
2022-10-18T00:26:10.031Z,14.20
2022-10-18T00:28:39.033Z,16.02
2022-10-18T00:31:11.581Z,14.38
2022-10-18T00:33:40.202Z,13.77
2022-10-18T00:36:08.657Z,14.43
2022-10-18T00:38:37.082Z,12.70
2022-10-18T00:41:07.398Z,14.27
2022-10-18T00:43:50.879Z,13.82
2022-10-18T00:46:19.182Z,13.55
2022-10-18T00:48:47.642Z,12.75
2022-10-18T00:51:16.925Z,12.20
2022-10-18T00:53:45.453Z,11.95
2022-10-18T00:56:15.665Z,12.30
2022-10-18T00:58:44.388Z,13.07
2022-10-18T01:01:12.715Z,15.55
2022-10-18T01:03:42.009Z,12.90
2022-10-18T01:06:10.585Z,12.48
2022-10-18T01:08:53.036Z,13.25
2022-10-18T01:11:32.285Z,18.40
2022-10-18T01:14:05.418Z,14.55
2022-10-18T01:16:37.558Z,12.65
2022-10-18T01:19:18.105Z,14.07
2022-10-18T01:21:48.356Z,15.48
2022-10-18T01:24:35.473Z,15.60
2022-10-18T01:27:29.348Z,12.30
2022-10-18T01:30:09.358Z,13.07
2022-10-18T01:32:40.982Z,14.98
2022-10-18T01:35:10.617Z,13.95
2022-10-18T01:37:39.410Z,12.98
2022-10-18T01:40:08.896Z,15.07
2022-10-18T01:42:37.203Z,12.60
2022-10-18T01:45:07.798Z,13.35
2022-10-18T01:47:37.009Z,13.13
2022-10-18T01:50:07.905Z,14.45
2022-10-18T01:52:36.369Z,14.43
2022-10-18T01:55:05.056Z,10.95
2022-10-18T01:57:37.447Z,16.70
2022-10-18T02:00:07.024Z,11.68
2022-10-18T02:02:45.808Z,16.50
2022-10-18T02:05:24.279Z,15.82
2022-10-18T02:08:05.896Z,12.65
2022-10-18T02:10:45.364Z,14.13
2022-10-18T02:13:15.071Z,15.07
2022-10-18T02:15:46.074Z,11.18
2022-10-18T02:18:17.689Z,13.07
2022-10-18T02:20:47.880Z,11.48
2022-10-18T02:23:16.921Z,14.52
2022-10-18T02:25:45.262Z,15.80
2022-10-18T02:28:13.831Z,17.90
2022-10-18T02:30:45.994Z,11.07
2022-10-18T02:33:15.470Z,12.63
2022-10-18T02:35:46.547Z,11.27
2022-10-18T02:38:17.342Z,13.40
2022-10-18T02:40:45.661Z,11.30
2022-10-18T02:43:15.741Z,16.85
2022-10-18T02:45:44.138Z,15.85
2022-10-18T02:48:12.537Z,12.80
2022-10-18T02:50:40.841Z,11.38
2022-10-18T02:53:09.145Z,12.93
2022-10-18T02:55:38.779Z,12.13
2022-10-18T02:58:07.077Z,13.18
2022-10-18T03:00:35.367Z,12.25
2022-10-18T03:03:03.655Z,15.02
2022-10-18T03:05:31.974Z,11.38
2022-10-18T03:08:00.286Z,13.00
2022-10-18T03:10:28.581Z,13.05
2022-10-18T03:12:58.237Z,10.70
2022-10-18T03:15:26.533Z,10.35
2022-10-18T03:17:54.853Z,11.18
2022-10-18T03:20:23.349Z,15.55
2022-10-18T03:22:51.994Z,12.00
2022-10-18T03:25:20.385Z,11.68
2022-10-18T03:27:48.949Z,13.18
2022-10-18T03:30:18.612Z,11.27
2022-10-18T03:32:46.900Z,16.08
2022-10-18T03:35:15.197Z,13.02
2022-10-18T03:37:43.522Z,12.95
2022-10-18T03:40:12.083Z,12.48
2022-10-18T03:42:40.450Z,13.55
2022-10-18T03:45:09.320Z,14.48
2022-10-18T03:47:38.984Z,15.98
2022-10-18T03:50:07.490Z,13.88
2022-10-18T03:52:35.880Z,18.00
2022-10-18T03:55:04.257Z,17.27
2022-10-18T03:57:32.553Z,17.08
2022-10-18T04:00:01.344Z,14.90
2022-10-18T04:02:29.991Z,11.35
2022-10-18T04:04:59.963Z,11.02
2022-10-18T04:07:28.396Z,9.85
2022-10-18T04:09:56.992Z,8.52
2022-10-18T04:12:25.381Z,8.60
2022-10-18T04:14:55.569Z,9.43
2022-10-18T04:17:24.064Z,9.07
2022-10-18T04:19:52.528Z,7.93
2022-10-18T04:22:22.170Z,8.80
2022-10-18T04:24:50.437Z,9.25
2022-10-18T04:27:18.709Z,10.55
2022-10-18T04:29:47.019Z,9.93
2022-10-18T04:32:15.322Z,9.23
2022-10-18T04:37:17.237Z,8.68
2022-10-18T04:39:51.237Z,8.93
2022-10-18T04:42:21.921Z,8.75
2022-10-18T04:44:50.256Z,9.77
2022-10-18T04:47:18.645Z,11.80
2022-10-18T04:49:46.978Z,11.60
2022-10-18T04:52:15.308Z,11.50
2022-10-18T04:54:43.850Z,10.70
2022-10-18T04:57:13.728Z,9.52
2022-10-18T04:59:42.319Z,8.40
2022-10-18T05:02:10.625Z,8.57
2022-10-18T05:04:38.938Z,8.93
2022-10-18T05:07:08.580Z,8.88
2022-10-18T05:09:36.905Z,9.00
2022-10-18T05:12:05.513Z,10.90
2022-10-18T05:14:35.188Z,8.60
2022-10-18T05:17:03.506Z,7.25
2022-10-18T05:19:31.822Z,8.27
2022-10-18T05:22:00.360Z,10.30
2022-10-18T05:24:28.833Z,10.60
2022-10-18T05:26:57.235Z,8.75
2022-10-18T05:29:25.615Z,9.77
2022-10-18T05:31:55.363Z,8.10
2022-10-18T05:34:24.700Z,8.75
2022-10-18T05:36:53.011Z,7.13
2022-10-18T05:39:21.358Z,8.82
2022-10-18T05:41:49.652Z,11.63
2022-10-18T05:44:17.948Z,9.57
2022-10-18T05:46:46.380Z,8.30
2022-10-18T05:49:16.503Z,8.68
2022-10-18T05:51:44.822Z,6.82
2022-10-18T05:54:13.237Z,11.98
2022-10-18T05:56:41.792Z,8.63
2022-10-18T05:59:12.118Z,6.82
2022-10-18T06:01:41.497Z,7.75
2022-10-18T06:04:10.968Z,6.68
2022-10-18T06:06:41.121Z,6.32
2022-10-18T06:09:09.486Z,7.65
2022-10-18T06:11:38.269Z,6.95
2022-10-18T06:14:06.644Z,10.32
2022-10-18T06:16:35.058Z,33.53
2022-10-18T06:19:03.362Z,11.57
2022-10-18T06:21:31.655Z,13.02
2022-10-18T06:24:01.450Z,36.63
2022-10-18T06:26:29.788Z,9.27
2022-10-18T06:28:58.147Z,12.00
2022-10-18T06:31:26.601Z,9.35
2022-10-18T06:33:55.146Z,6.65
2022-10-18T06:36:23.633Z,7.03
2022-10-18T06:38:52.317Z,6.20
2022-10-18T06:41:22.031Z,8.75
2022-10-18T06:43:50.889Z,7.03
2022-10-18T06:46:19.216Z,7.40
2022-10-18T06:48:47.785Z,8.80
2022-10-18T06:51:16.165Z,21.02
2022-10-18T06:53:59.190Z,7.00
2022-10-18T06:56:34.243Z,6.38
2022-10-18T06:59:02.716Z,5.80
2022-10-18T07:01:31.146Z,5.68
2022-10-18T07:03:59.653Z,14.05
2022-10-18T07:06:27.990Z,5.88
2022-10-18T07:08:57.012Z,8.23
2022-10-18T07:11:27.284Z,9.10
2022-10-18T07:14:03.006Z,5.53
2022-10-18T07:16:31.620Z,8.02
2022-10-18T07:19:00.037Z,9.38
2022-10-18T07:21:28.614Z,6.43
2022-10-18T07:23:57.895Z,11.50
2022-10-18T07:26:27.323Z,13.23
2022-10-18T07:28:58.142Z,7.30
2022-10-18T07:31:27.012Z,7.05
2022-10-18T07:33:55.441Z,8.90
2022-10-18T07:36:24.560Z,6.60
2022-10-18T07:38:53.208Z,5.95
2022-10-18T07:41:21.684Z,13.55
2022-10-18T07:43:50.831Z,11.95
2022-10-18T07:46:20.988Z,8.43
2022-10-18T07:48:49.485Z,5.57
2022-10-18T07:51:18.254Z,8.00
2022-10-18T07:53:46.889Z,10.40
2022-10-18T07:56:16.831Z,6.22
2022-10-18T07:58:46.172Z,6.57
2022-10-18T08:01:15.317Z,7.55
2022-10-18T08:03:45.395Z,6.22
2022-10-18T08:06:15.085Z,5.35
2022-10-18T08:08:43.789Z,12.15
2022-10-18T08:11:13.398Z,5.38
2022-10-18T08:13:41.790Z,5.90
2022-10-18T08:16:11.062Z,7.18
2022-10-18T08:18:39.612Z,11.73
2022-10-18T08:21:10.242Z,5.53
2022-10-18T08:23:38.910Z,5.78
2022-10-18T08:26:08.196Z,5.78
2022-10-18T08:28:37.411Z,11.48
2022-10-18T08:31:05.879Z,12.90
2022-10-18T08:33:35.726Z,8.43
2022-10-18T08:36:05.999Z,10.63
2022-10-18T08:38:36.653Z,7.72
2022-10-18T08:41:18.890Z,10.05
2022-10-18T08:43:48.929Z,9.75
2022-10-18T08:46:17.319Z,9.80
2022-10-18T08:48:47.596Z,11.98
2022-10-18T08:51:21.370Z,12.77
2022-10-18T08:53:53.526Z,18.00
2022-10-18T08:56:24.171Z,11.32
2022-10-18T08:58:52.564Z,16.30
2022-10-18T09:01:29.536Z,12.02
2022-10-18T09:04:07.312Z,10.63
2022-10-18T09:06:37.434Z,11.65
2022-10-18T09:09:23.775Z,11.98
2022-10-18T09:12:02.004Z,11.38
2022-10-18T09:14:44.300Z,11.63
2022-10-18T09:17:17.477Z,11.02
2022-10-18T09:19:56.806Z,8.75
2022-10-18T09:22:30.778Z,7.35
2022-10-18T09:25:04.745Z,7.50
2022-10-18T09:27:36.783Z,8.18
2022-10-18T09:30:11.510Z,8.75
2022-10-18T09:32:46.511Z,7.82
2022-10-18T09:35:16.855Z,9.93
2022-10-18T09:37:45.814Z,10.85
2022-10-18T09:40:19.011Z,10.80
2022-10-18T09:42:53.890Z,11.63
2022-10-18T09:45:25.699Z,9.40
2022-10-18T09:47:58.275Z,9.55
2022-10-18T09:50:29.262Z,6.78
2022-10-18T09:53:01.338Z,7.25
2022-10-18T09:55:33.850Z,9.65
2022-10-18T09:58:04.393Z,6.07
2022-10-18T10:00:35.547Z,6.18
2022-10-18T10:03:04.027Z,5.53
2022-10-18T10:05:32.392Z,6.88
2022-10-18T10:08:02.431Z,3.75
2022-10-18T10:10:31.864Z,9.00
2022-10-18T10:13:06.454Z,5.72
2022-10-18T10:15:38.149Z,6.35
2022-10-18T10:18:19.506Z,8.25
2022-10-18T10:20:49.269Z,4.72
2022-10-18T10:23:21.123Z,4.68
2022-10-18T10:25:52.276Z,5.18
2022-10-18T10:28:23.427Z,3.50
2022-10-18T10:30:52.147Z,6.75
2022-10-18T10:33:32.298Z,5.05
2022-10-18T10:36:01.292Z,2.85
2022-10-18T10:38:30.627Z,6.28
2022-10-18T10:40:59.621Z,6.05
2022-10-18T10:43:37.553Z,4.07
2022-10-18T10:46:09.017Z,6.28
2022-10-18T10:48:42.593Z,4.85
2022-10-18T10:51:12.237Z,4.47
2022-10-18T10:53:43.065Z,3.90
2022-10-18T10:56:17.200Z,8.13
2022-10-18T10:58:47.111Z,12.93
2022-10-18T11:01:20.476Z,5.70
2022-10-18T11:03:49.629Z,4.07
2022-10-18T11:06:37.066Z,5.15
2022-10-18T11:09:08.083Z,7.07
2022-10-18T11:11:37.941Z,26.98
2022-10-18T11:14:25.266Z,11.70
2022-10-18T11:16:57.772Z,4.70
2022-10-18T11:19:31.701Z,9.07
2022-10-18T11:22:01.263Z,3.60
2022-10-18T11:24:29.964Z,5.22
2022-10-18T11:27:00.502Z,5.10
2022-10-18T11:29:44.676Z,3.30
2022-10-18T11:32:16.866Z,2.33
2022-10-18T11:34:50.613Z,3.45
2022-10-18T11:37:31.097Z,5.38
2022-10-18T11:40:05.492Z,3.40
2022-10-18T11:42:39.937Z,4.68
2022-10-18T11:45:16.727Z,5.30
2022-10-18T11:47:52.293Z,3.10
2022-10-18T11:50:27.409Z,3.42
2022-10-18T11:53:00.629Z,3.20
2022-10-18T11:55:35.026Z,3.35
2022-10-18T11:58:07.477Z,6.32
2022-10-18T12:00:44.643Z,4.43
2022-10-18T12:03:24.182Z,14.13
2022-10-18T12:05:54.220Z,6.03
2022-10-18T12:08:25.162Z,4.68
2022-10-18T12:11:05.561Z,6.65
2022-10-18T12:13:36.683Z,3.22
2022-10-18T12:16:08.579Z,4.93
2022-10-18T12:18:37.993Z,5.13
2022-10-18T12:21:06.961Z,3.92
2022-10-18T12:23:38.430Z,8.05
2022-10-18T12:26:07.665Z,5.45
2022-10-18T12:28:40.481Z,5.18
2022-10-18T12:31:14.922Z,7.35
2022-10-18T12:33:45.912Z,5.90
2022-10-18T12:36:24.014Z,13.70
2022-10-18T12:38:54.513Z,6.22
2022-10-18T12:41:25.223Z,4.80
2022-10-18T12:43:54.069Z,2.13
2022-10-18T12:46:24.178Z,2.97
2022-10-18T12:49:03.170Z,4.05
2022-10-18T12:51:31.614Z,5.60
2022-10-18T12:54:11.211Z,4.28
2022-10-18T12:56:42.090Z,3.40
2022-10-18T12:59:35.506Z,2.80
2022-10-18T13:02:20.718Z,2.38
2022-10-18T13:04:49.352Z,1.88
2022-10-18T13:07:23.287Z,5.78
2022-10-18T13:10:09.612Z,2.28
2022-10-18T13:12:53.438Z,1.65
2022-10-18T13:15:31.046Z,3.05
2022-10-18T13:18:03.830Z,26.23
2022-10-18T13:20:38.507Z,8.00
2022-10-18T13:23:11.897Z,10.32
2022-10-18T13:25:49.199Z,6.80
2022-10-18T13:28:22.324Z,9.88
2022-10-18T13:30:54.867Z,1.30
2022-10-18T13:33:31.698Z,2.35
2022-10-18T13:36:00.725Z,3.15
2022-10-18T13:38:41.871Z,7.22
2022-10-18T13:41:11.708Z,4.88
2022-10-18T13:43:56.628Z,2.05
2022-10-18T13:46:26.170Z,3.08
2022-10-18T13:48:56.475Z,2.10
2022-10-18T13:51:33.746Z,4.38
2022-10-18T13:54:06.041Z,2.13
2022-10-18T13:56:46.957Z,2.40
2022-10-18T13:59:39.678Z,3.58
2022-10-18T14:02:50.411Z,2.58
2022-10-18T14:05:26.746Z,2.47
2022-10-18T14:07:59.800Z,3.25
2022-10-18T14:11:01.231Z,2.85
2022-10-18T14:13:35.535Z,3.20
2022-10-18T14:16:07.657Z,3.55
2022-10-18T14:18:38.220Z,4.75
2022-10-18T14:21:13.970Z,5.95
2022-10-18T14:23:45.447Z,3.03
2022-10-18T14:26:15.357Z,3.17
2022-10-18T14:29:00.300Z,3.53
2022-10-18T14:31:29.348Z,3.25
2022-10-18T14:33:58.972Z,3.55
2022-10-18T14:36:30.970Z,3.85
2022-10-18T14:39:00.275Z,3.53
2022-10-18T14:41:29.930Z,3.90
2022-10-18T14:44:13.265Z,3.08
2022-10-18T14:46:44.242Z,4.20
2022-10-18T14:49:13.440Z,4.57
2022-10-18T14:51:44.184Z,2.63
2022-10-18T14:54:16.204Z,3.78
2022-10-18T14:56:45.002Z,4.35
2022-10-18T14:59:14.886Z,4.18
2022-10-18T15:01:52.376Z,5.57
2022-10-18T15:04:24.728Z,2.38
2022-10-18T15:06:56.190Z,3.65
2022-10-18T15:09:25.306Z,3.63
2022-10-18T15:11:55.266Z,2.78
2022-10-18T15:14:23.736Z,3.03
2022-10-18T15:16:53.894Z,4.25
2022-10-18T15:19:32.910Z,3.10
2022-10-18T15:22:33.474Z,3.88
2022-10-18T15:25:08.099Z,2.80
2022-10-18T15:27:37.812Z,3.50
2022-10-18T15:30:09.129Z,2.90
2022-10-18T15:32:37.844Z,2.63
2022-10-18T15:35:09.981Z,4.85
2022-10-18T15:37:41.578Z,2.80
2022-10-18T15:40:21.076Z,2.25
2022-10-18T15:42:49.844Z,4.05
2022-10-18T15:45:38.537Z,5.20
2022-10-18T15:48:21.440Z,7.15
2022-10-18T15:50:50.588Z,3.08
2022-10-18T15:53:32.550Z,4.28
2022-10-18T15:56:02.445Z,2.60
2022-10-18T15:58:33.209Z,3.58
2022-10-18T16:01:04.321Z,2.80
2022-10-18T16:03:34.715Z,3.40
2022-10-18T16:06:05.927Z,3.58
2022-10-18T16:08:40.574Z,2.90
2022-10-18T16:11:09.373Z,2.78
2022-10-18T16:13:37.872Z,2.78
2022-10-18T16:16:06.471Z,2.92
2022-10-18T16:18:35.256Z,4.75
2022-10-18T16:21:03.603Z,3.70
2022-10-18T16:23:31.926Z,4.72
2022-10-18T16:26:01.564Z,3.63
2022-10-18T16:28:31.742Z,2.15
2022-10-18T16:31:01.164Z,4.13
2022-10-18T16:33:29.542Z,3.78
2022-10-18T16:35:58.504Z,2.67
2022-10-18T16:38:32.882Z,3.85
2022-10-18T16:41:05.526Z,6.55
2022-10-18T16:43:34.614Z,4.70
2022-10-18T16:46:03.233Z,3.83
2022-10-18T16:48:31.572Z,7.53
2022-10-18T16:51:00.345Z,3.15
2022-10-18T16:53:28.706Z,3.88
2022-10-18T16:55:59.008Z,2.63
2022-10-18T16:58:29.133Z,2.63
2022-10-18T17:00:57.953Z,4.15
2022-10-18T17:03:26.786Z,4.00
2022-10-18T17:05:56.197Z,3.67
2022-10-18T17:08:25.954Z,2.75
2022-10-18T17:10:55.525Z,4.70
2022-10-18T17:13:24.602Z,8.10
2022-10-18T17:15:54.556Z,12.10
2022-10-18T17:18:26.254Z,5.13
2022-10-18T17:20:54.663Z,4.22
2022-10-18T17:23:22.985Z,5.45
2022-10-18T17:26:05.129Z,4.03
2022-10-18T17:28:42.402Z,5.40
2022-10-18T17:31:12.133Z,4.00
2022-10-18T17:33:40.459Z,6.15
2022-10-18T17:36:08.761Z,6.85
2022-10-18T17:38:37.198Z,4.70
2022-10-18T17:41:07.504Z,6.45
2022-10-18T17:43:35.960Z,7.03
2022-10-18T17:46:04.338Z,6.05
2022-10-18T17:48:34.423Z,10.55
2022-10-18T17:51:07.443Z,8.13
2022-10-18T17:53:36.115Z,4.65
2022-10-18T17:56:05.032Z,7.53
2022-10-18T17:58:33.693Z,7.38
2022-10-18T18:01:09.902Z,5.70
2022-10-18T18:03:40.947Z,11.85
2022-10-18T18:06:16.775Z,4.93
2022-10-18T18:08:45.443Z,7.65
2022-10-18T18:11:13.787Z,8.00
2022-10-18T18:13:42.455Z,4.82
2022-10-18T18:16:11.788Z,5.50
2022-10-18T18:18:41.454Z,6.65
2022-10-18T18:21:09.830Z,5.82
2022-10-18T18:23:38.576Z,7.57
2022-10-18T18:26:07.213Z,7.55
2022-10-18T18:28:35.930Z,10.68
2022-10-18T18:31:06.854Z,7.07
2022-10-18T18:33:35.361Z,10.10
2022-10-18T18:36:06.587Z,7.80
2022-10-18T18:38:35.254Z,10.43
2022-10-18T18:41:04.661Z,12.00
2022-10-18T18:43:32.996Z,7.57
2022-10-18T18:46:02.316Z,8.15
2022-10-18T18:48:30.786Z,11.77
2022-10-18T18:50:59.105Z,6.60
2022-10-18T18:53:29.745Z,7.07
2022-10-18T18:56:02.584Z,7.15
2022-10-18T18:58:30.907Z,7.85
2022-10-18T19:00:59.355Z,7.93
2022-10-18T19:03:27.723Z,7.40
2022-10-18T19:06:03.573Z,7.70
2022-10-18T19:08:33.249Z,6.70
2022-10-18T19:11:01.591Z,8.68
2022-10-18T19:13:30.159Z,7.88
2022-10-18T19:16:13.364Z,13.23
2022-10-18T19:18:41.681Z,8.18
2022-10-18T19:21:09.985Z,6.40
2022-10-18T19:23:39.970Z,9.75
2022-10-18T19:26:11.983Z,7.72
2022-10-18T19:28:40.568Z,7.93
2022-10-18T19:31:10.243Z,7.75
2022-10-18T19:33:48.451Z,10.38
2022-10-18T19:36:17.147Z,10.93
2022-10-18T19:38:46.793Z,10.65
2022-10-18T19:41:15.259Z,13.02
2022-10-18T19:43:43.695Z,12.82
2022-10-18T19:46:12.255Z,10.75
2022-10-18T19:48:40.595Z,9.55
2022-10-18T19:51:09.823Z,9.38
2022-10-18T19:53:39.272Z,10.38
2022-10-18T19:56:16.529Z,12.35
2022-10-18T19:58:44.873Z,7.57
2022-10-18T20:01:13.308Z,9.10
2022-10-18T20:03:41.715Z,13.25
2022-10-18T20:06:10.096Z,8.95
2022-10-18T20:08:38.994Z,11.27
2022-10-18T20:11:09.752Z,8.82
2022-10-18T20:13:38.235Z,14.82
2022-10-18T20:16:08.725Z,11.98
2022-10-18T20:18:37.136Z,11.77
2022-10-18T20:21:06.615Z,11.27
2022-10-18T20:23:36.742Z,10.70
2022-10-18T20:26:06.082Z,15.02
2022-10-18T20:28:36.020Z,12.40
2022-10-18T20:31:05.179Z,12.52
2022-10-18T20:33:34.206Z,13.68
2022-10-18T20:36:06.909Z,14.73
2022-10-18T20:38:35.765Z,13.75
2022-10-18T20:41:05.346Z,15.60
2022-10-18T20:43:33.740Z,14.32
2022-10-18T20:46:03.951Z,12.65
2022-10-18T20:48:33.009Z,13.63
2022-10-18T20:51:04.541Z,20.50
2022-10-18T20:53:32.864Z,19.90
2022-10-18T20:56:05.575Z,19.58
2022-10-18T20:58:34.915Z,16.13
2022-10-18T21:01:10.731Z,18.40
2022-10-18T21:03:39.572Z,17.60
2022-10-18T21:06:11.473Z,14.38
2022-10-18T21:08:41.410Z,15.75
2022-10-18T21:11:11.144Z,13.60
2022-10-18T21:13:40.758Z,18.10
2022-10-18T21:16:10.697Z,18.98
2022-10-18T21:18:40.425Z,20.58
2022-10-18T21:21:09.980Z,18.08
2022-10-18T21:23:38.447Z,18.42
2022-10-18T21:26:07.205Z,18.00
2022-10-18T21:28:35.597Z,16.70
2022-10-18T21:31:13.335Z,15.27
2022-10-18T21:33:41.727Z,15.20
2022-10-18T21:36:10.249Z,17.02
2022-10-18T21:38:38.844Z,14.48
2022-10-18T21:41:10.886Z,18.30
2022-10-18T21:43:41.092Z,15.68
2022-10-18T21:46:09.985Z,17.50
2022-10-18T21:48:45.562Z,14.65
2022-10-18T21:51:15.702Z,15.00
2022-10-18T21:53:44.938Z,13.85
2022-10-18T21:56:14.566Z,17.70
2022-10-18T21:58:45.212Z,15.13
2022-10-18T22:01:15.297Z,13.57
2022-10-18T22:03:46.069Z,15.27
2022-10-18T22:06:16.359Z,14.50
2022-10-18T22:08:45.811Z,20.52
2022-10-18T22:11:14.663Z,18.33
2022-10-18T22:13:43.491Z,20.30
2022-10-18T22:16:14.198Z,20.77
2022-10-18T22:18:42.798Z,24.33
2022-10-18T22:21:13.266Z,20.45
2022-10-18T22:23:42.545Z,19.30
2022-10-18T22:26:12.114Z,19.55
2022-10-18T22:28:41.164Z,24.20
2022-10-18T22:31:18.121Z,22.80
2022-10-18T22:33:47.794Z,25.38
2022-10-18T22:36:17.415Z,23.10
2022-10-18T22:38:45.735Z,20.63
2022-10-18T22:41:14.045Z,22.63
2022-10-18T22:43:42.536Z,19.27
2022-10-18T22:46:11.767Z,20.10
2022-10-18T22:48:40.489Z,18.38
2022-10-18T22:51:09.137Z,20.77
2022-10-18T22:53:39.059Z,19.73
2022-10-18T22:56:07.953Z,23.90
2022-10-18T22:58:36.305Z,19.65
2022-10-18T23:01:05.363Z,23.63
2022-10-18T23:03:33.783Z,25.02
2022-10-18T23:06:02.542Z,23.58
2022-10-18T23:08:30.876Z,21.45
2022-10-18T23:11:01.353Z,27.45
2022-10-18T23:13:29.745Z,21.63
2022-10-18T23:16:04.461Z,24.33
2022-10-18T23:18:33.412Z,23.90
2022-10-18T23:21:02.644Z,21.73
2022-10-18T23:23:31.519Z,21.88
2022-10-18T23:26:01.142Z,18.40
2022-10-18T23:28:29.501Z,22.10
2022-10-18T23:30:57.832Z,24.20
2022-10-18T23:33:26.152Z,24.88
2022-10-18T23:35:54.447Z,29.50
2022-10-18T23:38:22.752Z,28.48
2022-10-18T23:40:51.087Z,22.08
2022-10-18T23:43:20.733Z,21.80
2022-10-18T23:45:49.091Z,24.80
2022-10-18T23:48:17.455Z,22.95
2022-10-18T23:50:46.023Z,26.65
2022-10-18T23:53:14.340Z,27.73
2022-10-18T23:55:50.419Z,21.95
2022-10-18T23:58:18.726Z,22.92
